Other Surface Observations
Issued by NWS Missoula, MT

Home | Current Version | Previous Version | Text Only | Print | Product List | Glossary On
Versions: 1 2 3 4 5 6 7 8 9 10 11 12 13 14 15 16 17 18 19 20 21 22 23 24 25 26 27 28 29 30 31 32 33 34 35 36 37 38 39 40 41 42 43 44 45 46 47 48 49 50
000
SXUS55 KMSO 221203
OSOMSO
MONTANA AWOS SUMMARY
NATIONAL WEATHER SERVICE MISSOULA MT
603 AM MDT FRI MAY 22 2015

Montana AWOS Reports

LAUREL      |K6S8 221155Z AUTO 00000KT 40SM 06/03 A2995 RMK AO1 T00610028
TWIN BRIDGES|K7S1 221155Z AUTO 00000KT 40SM 07/03 A2996 RMK AO1 T00720033
ROUNDUP     |KRPX 221155Z AUTO 00000KT 40SM 06/M01 A2990 RMK AO1 T00561005
MALTA       |KM75 221155Z AUTO 00000KT 40SM 05/01 A3000 RMK AO1 T00500006
EKALAKA     |K97M 221155Z AUTO 13006KT 40SM 09/02 A3005 RMK AO1 T00940022




USA.gov is the U.S. government's official web portal to all federal, state and local government web resources and services.